createdAt,value
2018-09-04T00:05:07.561Z,15.9
2018-09-04T00:10:37.096Z,15.9
2018-09-04T00:16:06.022Z,15.9
2018-09-04T00:21:34.581Z,15.8
2018-09-04T00:27:04.268Z,15.8
2018-09-04T00:32:33.034Z,15.8
2018-09-04T00:38:02.907Z,15.8
2018-09-04T00:43:31.819Z,15.8
2018-09-04T00:49:05.341Z,15.8
2018-09-04T00:54:29.066Z,15.7
2018-09-04T01:00:02.825Z,15.7
2018-09-04T01:05:26.579Z,15.7
2018-09-04T01:11:01.293Z,15.7
2018-09-04T01:16:25.984Z,15.6
2018-09-04T01:21:54.741Z,15.7
2018-09-04T01:27:24.475Z,15.7
2018-09-04T01:32:53.262Z,15.6
2018-09-04T01:38:22.230Z,15.6
2018-09-04T01:43:55.687Z,15.5
2018-09-04T01:49:19.353Z,15.5
2018-09-04T01:54:49.372Z,15.5
2018-09-04T02:00:23.857Z,15.5
2018-09-04T02:05:53.795Z,15.5
2018-09-04T02:11:23.548Z,15.5
2018-09-04T02:16:47.191Z,15.5
2018-09-04T02:22:15.828Z,15.5
2018-09-04T02:27:44.503Z,15.5
2018-09-04T02:33:13.413Z,15.5
2018-09-04T02:38:42.045Z,15.5
2018-09-04T02:44:10.825Z,15.5
2018-09-04T02:49:39.219Z,15.5
2018-09-04T02:55:08.035Z,15.5
2018-09-04T03:00:41.959Z,15.5
2018-09-04T03:06:06.579Z,15.4
2018-09-04T03:11:35.239Z,15.4
2018-09-04T03:17:10.100Z,15.4
2018-09-04T03:22:34.761Z,15.4
2018-09-04T03:28:04.416Z,15.3
2018-09-04T03:33:38.193Z,15.3
2018-09-04T03:39:07.712Z,15.3
2018-09-04T03:44:37.517Z,15.3
2018-09-04T03:50:00.950Z,15.3
2018-09-04T03:55:35.180Z,15.2
2018-09-04T04:00:58.598Z,15.2
2018-09-04T04:06:27.465Z,15.2
2018-09-04T04:11:55.989Z,15.2
2018-09-04T04:17:25.579Z,15.2
2018-09-04T04:23:00.285Z,15.2
2018-09-04T04:28:23.980Z,15.2
2018-09-04T04:33:53.362Z,15.2
2018-09-04T04:39:22.329Z,15.2
2018-09-04T04:44:55.747Z,15.2
2018-09-04T04:50:20.692Z,15.2
2018-09-04T04:55:49.384Z,15.2
2018-09-04T05:01:18.042Z,15.3
2018-09-04T05:06:47.459Z,15.3
2018-09-04T05:12:17.833Z,15.4
2018-09-04T05:17:51.193Z,15.4
2018-09-04T05:23:15.867Z,15.5
2018-09-04T05:28:45.335Z,15.5
2018-09-04T05:34:14.185Z,15.5
2018-09-04T05:39:44.080Z,15.6
2018-09-04T05:45:13.055Z,15.6
2018-09-04T05:50:41.682Z,15.6
2018-09-04T05:56:11.231Z,15.7
2018-09-04T06:01:40.226Z,15.7
2018-09-04T06:07:09.584Z,15.8
2018-09-04T06:12:39.190Z,15.8
2018-09-04T06:18:09.240Z,15.9
2018-09-04T06:23:39.281Z,15.9
2018-09-04T06:29:08.716Z,16
2018-09-04T06:34:42.237Z,16
2018-09-04T06:40:06.301Z,16.1
2018-09-04T06:45:36.063Z,16.1
2018-09-04T06:51:09.839Z,16.2
2018-09-04T06:56:38.658Z,16.2
2018-09-04T07:02:02.383Z,16.3
2018-09-04T07:07:37.383Z,16.3
2018-09-04T07:13:05.826Z,16.4
2018-09-04T07:18:30.516Z,16.5
2018-09-04T07:24:04.550Z,16.5
2018-09-04T07:29:29.435Z,16.5
2018-09-04T07:34:57.974Z,16.6
2018-09-04T07:40:26.918Z,16.6
2018-09-04T07:45:56.911Z,16.7
2018-09-04T07:51:25.603Z,16.7
2018-09-04T07:56:54.627Z,16.7
2018-09-04T08:02:24.232Z,16.8
2018-09-04T08:07:54.063Z,16.8
2018-09-04T08:13:23.248Z,16.9
2018-09-04T08:18:52.983Z,16.9
2018-09-04T08:24:23.258Z,16.9
2018-09-04T08:29:56.739Z,17
2018-09-04T08:35:21.317Z,17
2018-09-04T08:40:50.272Z,17
2018-09-04T08:46:19.592Z,17
2018-09-04T08:51:47.913Z,17.1
2018-09-04T08:57:16.797Z,17.1
2018-09-04T09:02:51.817Z,17.1
2018-09-04T09:08:15.554Z,17.2
2018-09-04T09:13:50.513Z,17.2
2018-09-04T09:19:15.328Z,17.2
2018-09-04T09:24:50.490Z,17.3
2018-09-04T09:30:14.115Z,17.3
2018-09-04T09:35:44.280Z,17.3
2018-09-04T09:41:12.903Z,17.4
2018-09-04T09:46:48.177Z,17.5
2018-09-04T09:52:12.754Z,17.6
2018-09-04T09:57:42.688Z,17.6
2018-09-04T10:03:12.600Z,17.5
2018-09-04T10:08:41.543Z,17.5
2018-09-04T10:14:10.486Z,17.5
2018-09-04T10:19:39.396Z,17.4
2018-09-04T10:25:08.275Z,17.4
2018-09-04T10:30:38.125Z,17.4
2018-09-04T10:36:07.174Z,17.5
2018-09-04T10:41:36.993Z,17.6
2018-09-04T10:47:12.012Z,17.8
2018-09-04T10:52:35.871Z,17.8
2018-09-04T10:58:09.930Z,17.7
2018-09-04T11:03:34.781Z,17.7
2018-09-04T11:09:04.826Z,17.7
2018-09-04T11:14:34.679Z,17.7
2018-09-04T11:20:04.840Z,17.8
2018-09-04T11:25:33.542Z,17.8
2018-09-04T11:31:07.800Z,17.7
2018-09-04T11:36:32.506Z,17.7
2018-09-04T11:42:01.346Z,17.7
2018-09-04T11:47:33.314Z,17.8
2018-09-04T11:53:00.241Z,17.8
2018-09-04T11:58:29.184Z,17.7
2018-09-04T12:04:05.356Z,17.7
2018-09-04T12:09:29.103Z,17.7
2018-09-04T12:15:03.377Z,17.8
2018-09-04T12:20:32.719Z,17.8
2018-09-04T12:25:55.933Z,17.8
2018-09-04T12:31:25.974Z,17.8
2018-09-04T12:37:00.201Z,17.9
2018-09-04T12:42:29.188Z,18
2018-09-04T12:47:53.792Z,18.1
2018-09-04T12:53:27.782Z,18.1
2018-09-04T12:58:52.691Z,18.1
2018-09-04T13:04:27.797Z,18.2
2018-09-04T13:09:59.331Z,18.2
2018-09-04T13:15:22.370Z,18.2
2018-09-04T13:20:55.630Z,18.2
2018-09-04T13:26:24.917Z,18.2
2018-09-04T13:31:49.937Z,18.2
2018-09-04T13:37:20.356Z,18.2
2018-09-04T13:42:48.638Z,18.2
2018-09-04T13:48:23.164Z,18.2
2018-09-04T13:53:47.614Z,18.2
2018-09-04T13:59:22.629Z,18.2
2018-09-04T14:04:46.592Z,18.3
2018-09-04T14:10:16.035Z,18.3
2018-09-04T14:15:45.836Z,18.3
2018-09-04T14:21:14.884Z,18.3
2018-09-04T14:26:48.921Z,18.3
2018-09-04T14:32:18.654Z,18.3
2018-09-04T14:37:47.667Z,18.4
2018-09-04T14:43:11.911Z,18.4
2018-09-04T14:48:40.965Z,18.4
2018-09-04T14:54:10.689Z,18.4
2018-09-04T15:00:44.819Z,18.4
2018-09-04T15:05:14.938Z,18.4
2018-09-04T15:10:39.828Z,18.4
2018-09-04T15:16:09.110Z,18.4
2018-09-04T15:21:38.108Z,18.4
2018-09-04T15:27:07.839Z,18.3
2018-09-04T15:32:43.279Z,18.3
2018-09-04T15:38:12.880Z,18.3
2018-09-04T15:43:37.716Z,18.3
2018-09-04T15:49:07.042Z,18.3
2018-09-04T15:54:37.272Z,18.3
2018-09-04T16:00:06.143Z,18.2
2018-09-04T16:05:34.979Z,18.2
2018-09-04T16:11:09.950Z,18.2
2018-09-04T16:16:33.944Z,18.1
2018-09-04T16:22:02.812Z,18.1
2018-09-04T16:27:31.927Z,18
2018-09-04T16:33:01.948Z,18
2018-09-04T16:38:31.646Z,18
2018-09-04T16:44:01.102Z,17.9
2018-09-04T16:49:35.007Z,17.9
2018-09-04T16:55:03.797Z,17.9
2018-09-04T17:00:29.002Z,17.8
2018-09-04T17:05:59.169Z,17.8
2018-09-04T17:11:32.941Z,17.7
2018-09-04T17:16:57.550Z,17.7
2018-09-04T17:22:26.309Z,17.7
2018-09-04T17:27:56.494Z,17.7
2018-09-04T17:33:31.205Z,17.6
2018-09-04T17:38:56.082Z,17.6
2018-09-04T17:44:30.585Z,17.6
2018-09-04T17:49:54.179Z,17.5
2018-09-04T17:55:23.930Z,17.5
2018-09-04T18:00:59.217Z,17.5
2018-09-04T18:06:22.724Z,17.4
2018-09-04T18:11:52.603Z,17.4
2018-09-04T18:17:22.744Z,17.3
2018-09-04T18:22:51.720Z,17.3
2018-09-04T18:28:25.579Z,17.2
2018-09-04T18:33:49.235Z,17.2
2018-09-04T18:39:18.020Z,17.1
2018-09-04T18:44:48.194Z,17
2018-09-04T18:50:16.805Z,17
2018-09-04T18:55:45.627Z,16.9
2018-09-04T19:01:20.526Z,16.9
2018-09-04T19:06:50.669Z,16.8
2018-09-04T19:12:19.225Z,16.7
2018-09-04T19:17:49.073Z,16.7
2018-09-04T19:23:18.096Z,16.6
2018-09-04T19:28:41.612Z,16.6
2018-09-04T19:34:16.896Z,16.5
2018-09-04T19:39:41.420Z,16.5
2018-09-04T19:45:16.331Z,16.4
2018-09-04T19:50:44.866Z,16.4
2018-09-04T19:56:08.680Z,16.4
2018-09-04T20:01:37.472Z,16.3
2018-09-04T20:07:07.383Z,16.3
2018-09-04T20:12:41.122Z,16.2
2018-09-04T20:18:10.088Z,16.1
2018-09-04T20:23:33.599Z,16.1
2018-09-04T20:29:03.337Z,16
2018-09-04T20:34:32.102Z,16
2018-09-04T20:40:05.949Z,16
2018-09-04T20:45:35.707Z,15.9
2018-09-04T20:51:00.430Z,15.9
2018-09-04T20:56:30.375Z,15.9
2018-09-04T21:02:04.865Z,15.9
2018-09-04T21:07:29.636Z,15.9
2018-09-04T21:12:58.640Z,15.9
2018-09-04T21:18:28.086Z,15.9
2018-09-04T21:24:02.819Z,15.8
2018-09-04T21:29:31.636Z,15.8
2018-09-04T21:35:33.265Z,15.8
2018-09-04T21:40:24.983Z,15.7
2018-09-04T21:45:53.723Z,15.7
2018-09-04T21:51:27.587Z,15.7
2018-09-04T21:56:51.507Z,15.6
2018-09-04T22:02:25.869Z,15.6
2018-09-04T22:07:50.531Z,15.6
2018-09-04T22:13:20.458Z,15.5
2018-09-04T22:18:55.031Z,15.5
2018-09-04T22:24:18.708Z,15.5
2018-09-04T22:29:47.416Z,15.5
2018-09-04T22:35:16.083Z,15.4
2018-09-04T22:40:45.806Z,15.4
2018-09-04T22:46:16.084Z,15.4
2018-09-04T22:51:44.149Z,15.3
2018-09-04T22:57:13.889Z,15.3
2018-09-04T23:02:43.773Z,15.3
2018-09-04T23:08:17.245Z,15.3
2018-09-04T23:13:41.957Z,15.3
2018-09-04T23:19:15.847Z,15.2
2018-09-04T23:24:44.300Z,15.2
2018-09-04T23:30:08.020Z,15.2
2018-09-04T23:35:36.907Z,15.1
2018-09-04T23:41:11.900Z,15.1
2018-09-04T23:46:41.042Z,15.1
2018-09-04T23:52:05.886Z,15.1
2018-09-04T23:57:39.833Z,15.1
